Terminal Aerodrome Forecast
Issued by NWS

Home | Current Version | Previous Version | Text Only | Print | Product List | Glossary On
Versions: 1 2 3 4 5 6 7 8 9 10 11 12 13 14 15 16
000
FTUS45 KBOI 270520
TAFBKE
TAF
KBKE 270520Z 2706/2806 13006KT P6SM -SHRA BKN020 OVC030
     FM271000 30010KT P6SM -SHRA BKN025 OVC040
     FM272000 32013G19KT P6SM VCSH BKN100
     FM280200 33006KT P6SM BKN200=

USA.gov is the U.S. government's official web portal to all federal, state and local government web resources and services.